createdAt,value
2023-01-30T00:01:33.680Z,16.11
2023-01-30T00:04:02.485Z,16.05
2023-01-30T00:06:31.189Z,16.05
2023-01-30T00:09:00.017Z,16.05
2023-01-30T00:11:30.464Z,16.03
2023-01-30T00:13:59.432Z,16.00
2023-01-30T00:16:28.070Z,15.98
2023-01-30T00:18:57.024Z,15.96
2023-01-30T00:21:25.534Z,15.93
2023-01-30T00:23:54.587Z,15.92
2023-01-30T00:26:23.195Z,15.91
2023-01-30T00:28:52.084Z,15.89
2023-01-30T00:31:20.746Z,15.89
2023-01-30T00:33:49.583Z,15.86
2023-01-30T00:36:18.072Z,15.85
2023-01-30T00:38:47.924Z,15.84
2023-01-30T00:41:17.605Z,15.82
2023-01-30T00:44:04.964Z,15.76
2023-01-30T00:47:13.547Z,15.77
2023-01-30T00:49:42.650Z,15.75
2023-01-30T00:52:11.236Z,15.75
2023-01-30T00:54:41.704Z,15.72
2023-01-30T00:57:10.238Z,15.71
2023-01-30T01:52:31.771Z,15.39
2023-01-30T01:55:03.044Z,15.38
2023-01-30T01:58:05.929Z,15.36
2023-01-30T02:00:35.346Z,15.35
2023-01-30T02:03:07.859Z,15.30
2023-01-30T02:05:39.483Z,15.28
2023-01-30T02:08:21.684Z,15.30
2023-01-30T02:11:19.942Z,15.26
2023-01-30T02:13:48.599Z,15.28
2023-01-30T02:16:17.810Z,15.24
2023-01-30T02:18:46.451Z,15.23
2023-01-30T02:21:42.998Z,15.23
2023-01-30T02:24:29.809Z,15.24
2023-01-30T02:27:36.022Z,15.23
2023-01-30T02:30:35.660Z,15.22
2023-01-30T02:33:50.675Z,15.19
2023-01-30T02:36:28.424Z,15.18
2023-01-30T02:39:19.039Z,15.15
2023-01-30T02:42:25.502Z,15.16
2023-01-30T02:45:26.671Z,15.14
2023-01-30T02:48:04.909Z,15.14
2023-01-30T02:50:47.970Z,15.12
2023-01-30T02:53:16.649Z,15.11
2023-01-30T02:55:45.511Z,15.09
2023-01-30T02:58:14.148Z,15.06
2023-01-30T03:01:33.623Z,15.01
2023-01-30T03:04:44.569Z,15.05
2023-01-30T03:07:56.262Z,14.99
2023-01-30T03:10:37.508Z,15.02
2023-01-30T03:13:34.310Z,15.01
2023-01-30T03:16:06.686Z,14.99
2023-01-30T03:18:35.651Z,14.98
2023-01-30T03:21:06.242Z,14.96
2023-01-30T03:23:35.209Z,14.93
2023-01-30T03:26:11.065Z,14.95
2023-01-30T03:28:41.431Z,14.89
2023-01-30T03:31:10.722Z,14.92
2023-01-30T03:33:39.758Z,14.88
2023-01-30T03:36:09.038Z,14.89
2023-01-30T03:38:39.968Z,14.90
2023-01-30T03:41:08.620Z,14.84
2023-01-30T03:43:37.514Z,14.88
2023-01-30T03:46:07.854Z,14.85
2023-01-30T03:48:36.698Z,14.80
2023-01-30T03:51:05.490Z,14.83
2023-01-30T03:53:34.370Z,14.81
2023-01-30T03:56:03.085Z,14.81
2023-01-30T03:58:34.727Z,14.79
2023-01-30T04:01:15.671Z,14.77
2023-01-30T04:03:44.581Z,14.78
2023-01-30T04:06:13.085Z,14.76
2023-01-30T04:08:42.569Z,14.75
2023-01-30T04:11:17.689Z,14.73
2023-01-30T04:13:46.627Z,14.72
2023-01-30T04:16:26.399Z,14.69
2023-01-30T04:19:13.698Z,14.72
2023-01-30T04:21:43.064Z,14.69
2023-01-30T04:24:12.119Z,14.67
2023-01-30T04:26:40.707Z,14.66
2023-01-30T04:29:10.474Z,14.65
2023-01-30T04:31:40.634Z,14.64
2023-01-30T04:34:25.071Z,14.59
2023-01-30T04:36:54.134Z,14.61
2023-01-30T04:39:22.988Z,14.62
2023-01-30T04:41:51.620Z,14.66
2023-01-30T04:44:21.246Z,14.72
2023-01-30T04:47:22.194Z,14.72
2023-01-30T04:49:51.145Z,14.80
2023-01-30T04:52:19.820Z,14.93
2023-01-30T04:54:49.813Z,15.01
2023-01-30T04:57:19.596Z,15.06
2023-01-30T04:59:48.717Z,15.20
2023-01-30T05:02:18.416Z,15.27
2023-01-30T05:04:50.639Z,15.40
2023-01-30T05:07:19.391Z,15.42
2023-01-30T05:09:48.356Z,15.49
2023-01-30T05:12:17.155Z,15.67
2023-01-30T05:14:47.385Z,15.78
2023-01-30T05:17:16.154Z,15.83
2023-01-30T05:19:45.189Z,15.97
2023-01-30T05:22:13.875Z,16.07
2023-01-30T05:24:42.878Z,16.05
2023-01-30T05:27:11.613Z,16.11
2023-01-30T05:29:40.626Z,16.26
2023-01-30T05:32:11.889Z,16.36
2023-01-30T05:34:41.118Z,16.44
2023-01-30T05:37:10.897Z,16.44
2023-01-30T05:39:39.621Z,16.45
2023-01-30T05:42:08.106Z,16.52
2023-01-30T05:44:37.017Z,16.59
2023-01-30T05:47:05.501Z,16.58
2023-01-30T05:49:34.360Z,16.58
2023-01-30T05:52:02.908Z,16.73
2023-01-30T05:54:32.059Z,16.77
2023-01-30T05:57:00.785Z,16.76
2023-01-30T05:59:29.759Z,16.75
2023-01-30T06:01:58.405Z,16.92
2023-01-30T06:04:28.672Z,16.88
2023-01-30T06:06:57.080Z,17.05
2023-01-30T06:09:27.393Z,17.16
2023-01-30T06:11:56.108Z,17.16
2023-01-30T06:14:24.956Z,17.06
2023-01-30T06:16:53.520Z,17.23
2023-01-30T06:19:22.462Z,17.28
2023-01-30T06:21:50.896Z,17.30
2023-01-30T06:24:19.610Z,17.26
2023-01-30T06:26:48.045Z,17.31
2023-01-30T06:29:16.789Z,17.31
2023-01-30T06:31:45.334Z,17.25
2023-01-30T06:34:14.277Z,17.27
2023-01-30T06:36:44.229Z,17.28
2023-01-30T06:39:13.298Z,17.18
2023-01-30T06:41:41.977Z,17.14
2023-01-30T06:44:11.059Z,17.08
2023-01-30T06:46:40.412Z,16.98
2023-01-30T06:49:09.548Z,16.98
2023-01-30T06:51:38.216Z,16.89
2023-01-30T06:54:07.275Z,16.88
2023-01-30T06:56:35.999Z,16.81
2023-01-30T06:59:05.018Z,16.76
2023-01-30T07:01:33.803Z,16.75
2023-01-30T07:04:02.864Z,16.67
2023-01-30T07:06:31.664Z,16.64
2023-01-30T07:09:00.663Z,16.60
2023-01-30T07:11:29.346Z,16.58
2023-01-30T07:13:58.599Z,16.49
2023-01-30T07:16:29.636Z,16.45
2023-01-30T07:18:59.195Z,16.45
2023-01-30T07:21:28.038Z,16.39
2023-01-30T07:23:56.882Z,16.36
2023-01-30T07:26:25.753Z,16.29
2023-01-30T07:29:19.924Z,16.29
2023-01-30T07:31:48.798Z,16.25
2023-01-30T07:34:19.002Z,16.24
2023-01-30T07:36:47.816Z,16.22
2023-01-30T07:39:16.596Z,16.17
2023-01-30T07:41:45.160Z,15.97
2023-01-30T07:44:14.451Z,16.10
2023-01-30T07:46:43.216Z,16.06
2023-01-30T07:49:12.104Z,16.05
2023-01-30T07:51:40.677Z,16.03
2023-01-30T07:54:10.718Z,15.98
2023-01-30T07:56:39.444Z,15.85
2023-01-30T07:59:08.335Z,15.88
2023-01-30T08:01:36.910Z,15.84
2023-01-30T08:04:05.999Z,15.21
2023-01-30T08:06:39.417Z,14.00
2023-01-30T08:09:08.708Z,14.56
2023-01-30T08:11:37.141Z,14.90
2023-01-30T08:14:07.181Z,15.10
2023-01-30T08:16:35.918Z,15.24
2023-01-30T08:19:06.068Z,15.33
2023-01-30T08:21:34.690Z,15.41
2023-01-30T08:24:04.961Z,15.42
2023-01-30T08:26:33.569Z,15.43
2023-01-30T08:29:03.608Z,15.35
2023-01-30T08:31:32.242Z,15.43
2023-01-30T08:34:01.141Z,15.40
2023-01-30T08:36:29.705Z,15.39
2023-01-30T08:38:58.564Z,15.37
2023-01-30T08:41:28.879Z,15.30
2023-01-30T08:43:57.835Z,15.28
2023-01-30T08:46:26.497Z,15.25
2023-01-30T08:48:55.452Z,15.19
2023-01-30T08:51:24.002Z,15.21
2023-01-30T08:53:52.934Z,15.20
2023-01-30T08:56:21.503Z,15.18
2023-01-30T08:58:50.460Z,15.13
2023-01-30T09:01:19.127Z,15.18
2023-01-30T09:03:48.370Z,15.19
2023-01-30T09:06:16.812Z,15.31
2023-01-30T09:08:45.875Z,15.38
2023-01-30T09:11:14.390Z,15.42
2023-01-30T09:13:44.785Z,15.48
2023-01-30T09:16:13.472Z,15.46
2023-01-30T09:18:43.308Z,15.48
2023-01-30T09:21:13.081Z,15.42
2023-01-30T09:23:41.982Z,15.34
2023-01-30T09:26:10.727Z,15.43
2023-01-30T09:28:40.761Z,15.37
2023-01-30T09:31:09.472Z,15.36
2023-01-30T09:33:38.457Z,15.39
2023-01-30T09:36:07.961Z,15.39
2023-01-30T09:38:36.811Z,15.41
2023-01-30T09:41:30.556Z,15.39
2023-01-30T09:44:37.051Z,15.32
2023-01-30T09:47:23.815Z,15.40
2023-01-30T09:50:58.396Z,15.38
2023-01-30T09:53:51.407Z,15.33
2023-01-30T09:56:20.488Z,15.29
2023-01-30T09:59:16.219Z,15.31
2023-01-30T10:01:58.480Z,15.29
2023-01-30T10:04:41.953Z,15.28
2023-01-30T10:07:24.675Z,15.29
2023-01-30T10:09:58.671Z,15.28
2023-01-30T10:13:04.082Z,15.26
2023-01-30T10:15:56.437Z,15.26
2023-01-30T10:19:26.090Z,15.23
2023-01-30T10:22:32.015Z,15.18
2023-01-30T10:25:33.583Z,15.14
2023-01-30T10:28:34.551Z,15.15
2023-01-30T10:31:09.226Z,15.16
2023-01-30T10:33:50.610Z,15.14
2023-01-30T10:36:28.290Z,15.12
2023-01-30T10:38:57.660Z,15.24
2023-01-30T10:41:55.282Z,15.39
2023-01-30T10:44:24.823Z,15.56
2023-01-30T10:47:02.780Z,15.70
2023-01-30T10:49:58.130Z,15.83
2023-01-30T10:52:38.978Z,15.97
2023-01-30T10:55:36.833Z,16.08
2023-01-30T10:58:27.294Z,16.21
2023-01-30T11:01:01.399Z,16.34
2023-01-30T11:04:19.149Z,16.46
2023-01-30T11:06:48.155Z,16.59
2023-01-30T11:09:16.699Z,16.68
2023-01-30T11:11:49.656Z,16.71
2023-01-30T11:14:18.471Z,16.81
2023-01-30T11:16:52.329Z,16.95
2023-01-30T11:19:25.843Z,17.02
2023-01-30T11:21:56.614Z,17.09
2023-01-30T11:24:32.431Z,17.19
2023-01-30T11:27:44.884Z,17.30
2023-01-30T11:30:16.620Z,17.39
2023-01-30T11:32:48.461Z,17.49
2023-01-30T11:35:29.517Z,17.52
2023-01-30T11:38:24.375Z,17.56
2023-01-30T11:41:17.836Z,17.65
2023-01-30T11:43:48.533Z,17.74
2023-01-30T11:46:20.829Z,17.80
2023-01-30T11:49:06.169Z,17.89
2023-01-30T11:51:45.565Z,17.88
2023-01-30T11:54:20.133Z,18.00
2023-01-30T11:56:55.800Z,18.06
2023-01-30T11:59:25.810Z,18.21
2023-01-30T12:02:02.134Z,18.17
2023-01-30T12:04:31.337Z,18.21
2023-01-30T12:07:21.161Z,18.18
2023-01-30T12:09:51.959Z,18.14
2023-01-30T12:12:45.882Z,17.82
2023-01-30T12:15:31.289Z,17.92
2023-01-30T12:18:20.160Z,17.98
2023-01-30T12:21:00.161Z,17.96
2023-01-30T12:23:47.827Z,17.89
2023-01-30T12:26:44.954Z,17.89
2023-01-30T12:29:33.854Z,17.84
2023-01-30T12:32:22.679Z,17.82
2023-01-30T12:34:51.592Z,17.80
2023-01-30T12:37:40.061Z,17.77
2023-01-30T12:40:08.782Z,17.73
2023-01-30T12:42:58.292Z,17.71
2023-01-30T12:45:51.486Z,17.63
2023-01-30T12:48:43.973Z,17.58
2023-01-30T12:51:55.632Z,17.57
2023-01-30T12:54:24.792Z,17.50
2023-01-30T12:57:05.626Z,17.43
2023-01-30T13:00:09.746Z,17.43
2023-01-30T13:02:57.060Z,17.39
2023-01-30T13:06:08.203Z,17.33
2023-01-30T13:09:16.633Z,17.30
2023-01-30T13:12:05.386Z,17.25
2023-01-30T13:14:59.295Z,17.22
2023-01-30T13:17:38.528Z,17.19
2023-01-30T13:20:13.758Z,17.17
2023-01-30T13:23:19.363Z,17.14
2023-01-30T13:25:55.538Z,17.12
2023-01-30T13:28:41.899Z,17.11
2023-01-30T13:31:12.782Z,17.07
2023-01-30T13:33:44.794Z,17.04
2023-01-30T13:36:31.744Z,17.05
2023-01-30T13:39:03.713Z,17.02
2023-01-30T13:41:38.733Z,17.02
2023-01-30T13:44:29.397Z,16.97
2023-01-30T13:46:59.757Z,16.93
2023-01-30T13:49:43.837Z,16.94
2023-01-30T13:52:41.322Z,16.94
2023-01-30T13:55:32.849Z,16.92
2023-01-30T13:58:25.451Z,16.89
2023-01-30T14:00:55.450Z,16.87
2023-01-30T14:03:25.338Z,16.85
2023-01-30T14:06:03.279Z,16.83
2023-01-30T14:08:46.162Z,16.81
2023-01-30T14:11:36.356Z,16.78
2023-01-30T14:14:21.077Z,16.78
2023-01-30T14:16:52.234Z,16.76
2023-01-30T14:19:37.322Z,16.75
2023-01-30T14:22:25.717Z,16.75
2023-01-30T14:25:38.862Z,16.72
2023-01-30T14:28:08.954Z,16.68
2023-01-30T14:30:48.146Z,16.64
2023-01-30T14:33:23.361Z,16.62
2023-01-30T14:36:07.645Z,16.58
2023-01-30T14:38:38.663Z,16.58
2023-01-30T14:41:07.452Z,16.53
2023-01-30T14:43:43.199Z,16.51
2023-01-30T14:46:21.068Z,16.48
2023-01-30T14:48:57.025Z,16.43
2023-01-30T14:51:28.793Z,16.44
2023-01-30T14:54:00.947Z,16.40
2023-01-30T14:56:45.603Z,16.36
2023-01-30T14:59:17.580Z,16.36
2023-01-30T15:02:00.175Z,16.32
2023-01-30T15:04:40.160Z,16.29
2023-01-30T15:07:48.885Z,16.22
2023-01-30T15:10:33.689Z,16.21
2023-01-30T15:13:05.119Z,16.17
2023-01-30T15:16:00.157Z,16.17
2023-01-30T15:18:40.909Z,16.16
2023-01-30T15:21:29.708Z,16.12
2023-01-30T15:24:26.394Z,16.11
2023-01-30T15:27:14.072Z,16.08
2023-01-30T15:30:01.255Z,16.07
2023-01-30T15:32:31.327Z,16.03
2023-01-30T15:35:16.985Z,16.02
2023-01-30T15:37:48.829Z,15.97
2023-01-30T15:40:20.862Z,15.93
2023-01-30T15:43:00.475Z,15.89
2023-01-30T15:45:34.936Z,15.83
2023-01-30T15:48:12.805Z,15.80
2023-01-30T15:50:47.200Z,15.75
2023-01-30T15:53:16.211Z,15.67
2023-01-30T15:55:44.919Z,15.66
2023-01-30T15:58:17.350Z,15.63
2023-01-30T16:00:47.964Z,15.59
2023-01-30T16:03:23.713Z,15.56
2023-01-30T16:05:55.553Z,15.59
2023-01-30T16:08:32.192Z,15.61
2023-01-30T16:11:00.979Z,15.66
2023-01-30T16:13:30.473Z,15.76
2023-01-30T16:16:08.266Z,15.85
2023-01-30T16:18:50.003Z,15.89
2023-01-30T16:21:24.378Z,15.97
2023-01-30T16:23:58.808Z,16.04
2023-01-30T16:26:27.589Z,16.15
2023-01-30T16:29:07.379Z,16.30
2023-01-30T16:31:39.902Z,16.37
2023-01-30T16:34:30.657Z,16.44
2023-01-30T16:37:04.360Z,16.54
2023-01-30T16:39:35.226Z,16.57
2023-01-30T16:42:18.868Z,16.62
2023-01-30T16:44:47.920Z,16.76
2023-01-30T16:47:25.534Z,16.88
2023-01-30T16:49:55.021Z,16.86
2023-01-30T16:52:25.790Z,17.04
2023-01-30T16:54:58.962Z,17.03
2023-01-30T16:57:43.972Z,17.08
2023-01-30T17:00:27.321Z,17.16
2023-01-30T17:03:21.875Z,17.34
2023-01-30T17:05:51.950Z,17.29
2023-01-30T17:08:43.239Z,17.36
2023-01-30T17:11:29.443Z,17.50
2023-01-30T17:14:26.131Z,17.57
2023-01-30T17:17:05.063Z,17.58
2023-01-30T17:19:34.107Z,17.77
2023-01-30T17:22:05.753Z,17.77
2023-01-30T17:24:35.435Z,17.85
2023-01-30T17:27:04.863Z,17.86
2023-01-30T17:29:42.515Z,17.87
2023-01-30T17:32:13.658Z,17.90
2023-01-30T17:34:42.453Z,18.06
2023-01-30T17:37:20.036Z,18.01
2023-01-30T17:39:48.903Z,18.13
2023-01-30T17:42:21.169Z,18.12
2023-01-30T17:44:49.935Z,18.19
2023-01-30T17:47:19.027Z,18.24
2023-01-30T17:49:47.718Z,18.21
2023-01-30T17:52:16.489Z,18.10
2023-01-30T17:54:44.989Z,18.23
2023-01-30T17:57:15.841Z,18.20
2023-01-30T17:59:44.661Z,18.28
2023-01-30T18:02:15.828Z,18.37
2023-01-30T18:04:45.130Z,18.47
2023-01-30T18:07:14.793Z,18.42
2023-01-30T18:09:43.601Z,18.45
2023-01-30T18:12:12.574Z,18.47
2023-01-30T18:14:41.271Z,18.47
2023-01-30T18:17:11.489Z,18.44
2023-01-30T18:19:40.235Z,18.38
2023-01-30T18:22:09.328Z,18.33
2023-01-30T18:24:38.109Z,18.32
2023-01-30T18:27:08.330Z,18.20
2023-01-30T18:29:37.769Z,18.09
2023-01-30T18:32:06.873Z,18.09
2023-01-30T18:34:35.656Z,18.09
2023-01-30T18:37:04.743Z,17.98
2023-01-30T18:39:33.526Z,17.87
2023-01-30T18:42:03.267Z,17.89
2023-01-30T18:44:32.003Z,17.87
2023-01-30T18:47:00.996Z,17.83
2023-01-30T18:49:30.932Z,17.77
2023-01-30T18:52:00.046Z,17.72
2023-01-30T18:54:28.804Z,17.66
2023-01-30T18:56:57.936Z,17.68
2023-01-30T18:59:26.965Z,17.71
2023-01-30T19:01:55.938Z,17.82
2023-01-30T19:04:24.664Z,17.87
2023-01-30T19:06:54.984Z,17.92
2023-01-30T19:09:23.773Z,18.04
2023-01-30T19:12:11.337Z,17.98
2023-01-30T19:14:40.163Z,18.02
2023-01-30T19:17:09.324Z,18.18
2023-01-30T19:19:38.154Z,18.12
2023-01-30T19:22:07.204Z,18.15
2023-01-30T19:24:35.975Z,18.27
2023-01-30T19:27:05.664Z,18.28
2023-01-30T19:29:34.375Z,18.19
2023-01-30T19:32:03.680Z,18.20
2023-01-30T19:34:32.444Z,18.15
2023-01-30T19:37:01.480Z,18.11
2023-01-30T19:39:30.222Z,18.07
2023-01-30T19:41:59.343Z,18.03
2023-01-30T19:44:28.250Z,17.99
2023-01-30T19:46:57.347Z,17.98
2023-01-30T19:49:26.104Z,17.89
2023-01-30T19:51:57.333Z,17.82
2023-01-30T19:54:26.100Z,17.80
2023-01-30T19:56:55.134Z,17.73
2023-01-30T19:59:28.737Z,17.68
2023-01-30T20:01:57.925Z,17.66
2023-01-30T20:04:26.755Z,17.67
2023-01-30T20:06:55.824Z,17.70
2023-01-30T20:09:24.561Z,17.76
2023-01-30T20:11:53.714Z,17.81
2023-01-30T20:14:22.464Z,17.91
2023-01-30T20:16:51.482Z,17.94
2023-01-30T20:19:20.094Z,18.00
2023-01-30T20:21:49.108Z,18.09
2023-01-30T20:24:18.473Z,18.07
2023-01-30T20:26:48.640Z,18.15
2023-01-30T20:29:18.669Z,18.16
2023-01-30T20:31:47.814Z,18.18
2023-01-30T20:34:16.615Z,18.13
2023-01-30T20:36:45.664Z,18.07
2023-01-30T20:39:16.277Z,18.07
2023-01-30T20:41:45.346Z,18.00
2023-01-30T20:44:14.736Z,17.94
2023-01-30T20:46:46.314Z,17.86
2023-01-30T20:49:19.618Z,17.82
2023-01-30T20:51:53.125Z,17.77
2023-01-30T20:54:22.907Z,17.77
2023-01-30T20:56:53.312Z,17.68
2023-01-30T20:59:24.462Z,17.68
2023-01-30T21:01:53.694Z,17.62
2023-01-30T21:04:24.398Z,17.60
2023-01-30T21:06:54.250Z,17.57
2023-01-30T21:09:23.687Z,17.58
2023-01-30T21:11:53.546Z,17.60
2023-01-30T21:14:22.521Z,17.68
2023-01-30T21:16:53.033Z,17.78
2023-01-30T21:19:23.014Z,17.88
2023-01-30T21:21:55.496Z,17.91
2023-01-30T21:24:26.168Z,17.95
2023-01-30T21:26:55.425Z,17.94
2023-01-30T21:29:25.058Z,18.07
2023-01-30T21:31:54.404Z,18.05
2023-01-30T21:34:23.445Z,18.14
2023-01-30T21:37:26.427Z,18.18
2023-01-30T21:40:13.616Z,18.17
2023-01-30T21:43:01.150Z,18.19
2023-01-30T21:45:29.945Z,18.14
2023-01-30T21:47:59.023Z,18.07
2023-01-30T21:50:28.476Z,18.09
2023-01-30T21:52:57.533Z,18.00
2023-01-30T21:55:26.246Z,17.89
2023-01-30T21:57:55.592Z,17.85
2023-01-30T22:00:24.249Z,17.78
2023-01-30T22:02:53.257Z,17.70
2023-01-30T22:05:22.361Z,17.71
2023-01-30T22:07:51.615Z,17.69
2023-01-30T22:10:20.325Z,17.62
2023-01-30T22:12:49.413Z,17.56
2023-01-30T22:15:21.044Z,17.56
2023-01-30T22:17:50.619Z,17.51
2023-01-30T22:20:19.387Z,17.44
2023-01-30T22:22:49.496Z,17.41
2023-01-30T22:25:18.610Z,17.39
2023-01-30T22:27:49.336Z,17.36
2023-01-30T22:30:18.675Z,17.28
2023-01-30T22:32:47.782Z,17.26
2023-01-30T22:35:16.540Z,17.19
2023-01-30T22:37:45.547Z,17.13
2023-01-30T22:40:14.355Z,17.11
2023-01-30T22:42:48.551Z,17.07
2023-01-30T22:45:17.681Z,17.03
2023-01-30T22:47:47.013Z,17.00
2023-01-30T22:50:15.818Z,16.94
2023-01-30T22:52:46.093Z,16.92
2023-01-30T22:55:14.794Z,16.90
2023-01-30T22:57:43.836Z,16.86
2023-01-30T23:00:12.759Z,16.83
2023-01-30T23:02:41.537Z,16.77
2023-01-30T23:05:10.427Z,16.73
2023-01-30T23:07:39.250Z,16.71
2023-01-30T23:10:08.524Z,16.69
2023-01-30T23:12:55.899Z,16.66
2023-01-30T23:15:24.863Z,16.61
2023-01-30T23:18:13.116Z,16.58
2023-01-30T23:20:41.539Z,16.55
2023-01-30T23:23:10.800Z,16.52
2023-01-30T23:25:42.813Z,16.50
2023-01-30T23:28:11.892Z,16.47
2023-01-30T23:30:40.738Z,16.44
2023-01-30T23:33:09.811Z,16.42
2023-01-30T23:35:38.886Z,16.39
2023-01-30T23:38:16.976Z,16.35
2023-01-30T23:40:47.269Z,16.33
2023-01-30T23:43:16.629Z,16.29
2023-01-30T23:45:45.407Z,16.27
2023-01-30T23:48:14.477Z,16.26
2023-01-30T23:50:43.148Z,16.23
2023-01-30T23:53:12.183Z,16.21
2023-01-30T23:55:40.800Z,16.19
2023-01-30T23:58:09.800Z,16.14
